Главная страница
METAR-TAF:

METAR-TAF

Аэропорты :

Ботсфьорд, Норвегия

широта: 70-38N, долгота: 029-44E, высота над уровнем моря: 10 м

Текущие метеонаблюдения

Эта сводка был подготовлена 6 часа и 20 минут назад, в 20:50 UTC
Ветер 15 Узел от южный
Температура 12°C
Влажность 76%
Давление 1010 hPa
Видимость 10 км и более
небольшая облачность на высоте 2700 фута
Отдельные облака на высоте 4400 фута
Рассеянная облачность на высоте 7600 фута

METAR: ENBS 162050Z 17015KT 9999 FEW027 SCT044 BKN076 12/08 Q1010

Время: 05:10 (03:10 UTC)


TAF: отсутствует

Метеонаблюдения и прогнозы для более 4000 аэропортов (сводки METAR и TAF).

Имеющиеся станции представлены на карте желтыми и красными точками.

Чтобы увидеть название станции, наведите на нее мышь.

Затем щелкните, чтобы увидеть метеонаблюдения и метеопрогнозы.

Управление картой: чтобы увеличить масштаб, щелкните зеленые кнопки с черным крестиком; чтобы уменьшить масштаб, щелкните зеленую кнопку с тире; для просмотра соседних карт щелкайте зеленые стрелки.


METAR-TAF: